Time;durP1;ratioP1;P1;durP2;ratioP2;P2;SDS_P1;SDS_P2;PMS_P1;PMS_P2;Temp;Humidity;BMP_temperature;BMP_pressure;BME280_temperature;BME280_humidity;BME280_pressure;Samples;Min_cycle;Max_cycle;Signal;HPM_P1;HPM_P2
2020/12/11 00:48:59;;;;;;;80.67;28.67;;;2.30;99.90;;;3.29;100.00;99290.84;4868440;24;20262;-61
2020/12/11 00:51:26;;;;;;;80.43;27.17;;;2.30;99.90;;;3.35;100.00;99298.03;4750893;30;20268;-60
2020/12/11 00:53:53;;;;;;;74.43;28.07;;;2.30;99.90;;;3.14;100.00;99290.13;4751139;30;20226;-59
2020/12/11 00:56:22;;;;;;;75.13;27.63;;;2.30;99.90;;;3.35;100.00;99293.53;4750519;30;20575;-60
2020/12/11 00:58:49;;;;;;;73.03;28.00;;;2.30;99.90;;;3.30;100.00;99287.97;4750653;30;20299;-61
2020/12/11 01:01:17;;;;;;;76.73;28.00;;;2.30;99.90;;;3.20;100.00;99284.84;4757066;30;20243;-60
2020/12/11 01:03:44;;;;;;;84.67;28.87;;;2.30;99.90;;;3.12;100.00;99295.66;4768496;30;20215;-61
2020/12/11 01:06:12;;;;;;;87.43;30.23;;;2.30;99.90;;;3.30;100.00;99287.97;4768573;30;20713;-60
2020/12/11 01:08:40;;;;;;;77.73;27.10;;;2.30;99.90;;;3.32;100.00;99277.97;4768219;30;20219;-60
2020/12/11 01:11:07;;;;;;;75.90;29.17;;;2.30;99.90;;;3.14;100.00;99284.81;4768242;30;20268;-60
2020/12/11 01:13:34;;;;;;;79.97;28.00;;;2.30;99.90;;;3.06;100.00;99276.97;4768473;30;20291;-60
2020/12/11 01:16:01;;;;;;;72.97;27.43;;;2.30;99.90;;;3.19;100.00;99271.75;4768484;30;20215;-60
2020/12/11 01:18:28;;;;;;;75.47;27.57;;;2.20;99.90;;;3.02;100.00;99273.03;4770292;30;20324;-60
2020/12/11 01:20:56;;;;;;;67.77;25.73;;;2.20;99.90;;;3.10;100.00;99278.22;4771837;30;20321;-60
2020/12/11 01:23:24;;;;;;;74.00;26.63;;;2.30;99.90;;;3.08;100.00;99269.63;4771797;30;20215;-60
2020/12/11 01:25:51;;;;;;;70.33;26.57;;;2.20;99.90;;;3.42;100.00;99261.66;4771434;30;20239;-60
2020/12/11 01:28:19;;;;;;;69.67;28.30;;;2.30;99.90;;;3.32;100.00;99261.19;4771723;30;20243;-61
2020/12/11 01:30:47;;;;;;;79.90;27.67;;;2.30;99.90;;;3.28;100.00;99273.25;4771402;30;20212;-60
2020/12/11 01:33:14;;;;;;;82.30;27.60;;;2.30;99.90;;;3.39;100.00;99262.03;4771420;30;20204;-61
2020/12/11 01:35:44;;;;;;;71.57;27.47;;;2.30;99.90;;;3.29;100.00;99264.22;4771619;30;20246;-60
2020/12/11 01:38:11;;;;;;;78.10;28.40;;;2.40;99.90;;;3.27;100.00;99259.09;4771287;30;20779;-61
2020/12/11 01:40:39;;;;;;;83.23;27.30;;;2.30;99.90;;;3.43;100.00;99258.78;4771307;30;20294;-60
2020/12/11 01:43:07;;;;;;;78.00;27.20;;;2.40;99.90;;;3.24;100.00;99256.00;4771148;30;20717;-60
2020/12/11 01:45:34;;;;;;;70.73;26.50;;;2.40;99.90;;;3.27;100.00;99252.97;4771451;30;20690;-61
2020/12/11 01:48:01;;;;;;;78.87;28.77;;;2.40;99.90;;;3.32;100.00;99250.53;4771077;30;20267;-60
2020/12/11 01:50:29;;;;;;;73.87;26.37;;;2.40;99.90;;;3.26;100.00;99251.31;4771345;30;20208;-60
2020/12/11 01:52:56;;;;;;;76.13;26.37;;;2.30;99.90;;;3.21;100.00;99243.94;4771064;30;20307;-60
2020/12/11 01:55:24;;;;;;;71.47;27.57;;;2.30;99.90;;;3.52;100.00;99240.81;4771262;30;20208;-61
2020/12/11 01:57:59;;;;;;;74.43;27.57;;;2.40;99.90;;;3.28;100.00;99236.78;4770871;30;20302;-60
2020/12/11 02:00:27;;;;;;;68.77;26.67;;;2.40;99.90;;;3.18;100.00;99232.88;4770783;30;20230;-60
2020/12/11 02:03:05;;;;;;;71.90;27.70;;;2.30;99.90;;;3.20;100.00;99238.78;4753261;30;20627;-60
2020/12/11 02:05:33;;;;;;;66.70;25.20;;;2.30;99.90;;;3.26;100.00;99230.03;4753262;30;20421;-60
2020/12/11 02:08:00;;;;;;;67.10;25.73;;;2.30;99.90;;;3.45;100.00;99224.00;4753015;30;20317;-61
2020/12/11 02:10:28;;;;;;;66.33;27.57;;;2.40;99.90;;;3.40;100.00;99226.44;4752829;30;20803;-60
2020/12/11 02:13:04;;;;;;;73.70;27.57;;;2.40;99.90;;;3.28;100.00;99218.16;4752782;30;20208;-62
2020/12/11 02:15:31;;;;;;;69.63;26.87;;;2.40;99.90;;;3.25;100.00;99210.59;4753293;30;20288;-60
2020/12/11 02:17:58;;;;;;;78.93;27.43;;;2.40;99.90;;;3.15;100.00;99215.44;4753203;30;20216;-61
2020/12/11 02:20:26;;;;;;;68.27;24.70;;;2.30;99.90;;;3.19;100.00;99207.88;4753171;30;20312;-60
2020/12/11 02:22:54;;;;;;;73.20;26.57;;;2.30;99.90;;;3.35;100.00;99215.53;4753083;30;20365;-60
2020/12/11 02:25:22;;;;;;;70.63;26.10;;;2.40;99.90;;;3.37;100.00;99214.34;4752853;30;20264;-60
2020/12/11 02:27:50;;;;;;;74.20;27.10;;;2.40;99.90;;;3.46;100.00;99215.81;4752819;30;20311;-61
2020/12/11 02:30:18;;;;;;;62.40;24.70;;;2.40;99.90;;;3.39;100.00;99212.31;4752137;30;20727;-60
2020/12/11 02:32:46;;;;;;;67.00;25.67;;;2.40;99.90;;;3.29;100.00;99211.84;4752949;30;20296;-61
2020/12/11 02:35:13;;;;;;;66.57;26.30;;;2.40;99.90;;;3.45;100.00;99202.72;4752842;30;20232;-60
2020/12/11 02:37:40;;;;;;;67.43;26.10;;;2.40;99.90;;;3.38;100.00;99209.84;4752832;30;20299;-60
2020/12/11 02:40:09;;;;;;;67.93;25.33;;;2.40;99.90;;;3.18;100.00;99207.06;4752535;30;20766;-61
2020/12/11 02:42:36;;;;;;;69.23;24.47;;;2.40;99.90;;;3.14;100.00;99203.16;4752247;30;20212;-61
2020/12/11 02:45:04;;;;;;;66.87;25.27;;;2.30;99.90;;;3.28;100.00;99194.22;4752696;30;20290;-60
2020/12/11 02:47:33;;;;;;;69.00;24.73;;;2.30;99.90;;;3.32;100.00;99190.16;4752287;30;20281;-62
2020/12/11 02:50:01;;;;;;;70.80;25.53;;;2.40;99.90;;;3.18;100.00;99187.63;4752629;30;20219;-59
2020/12/11 02:52:29;;;;;;;70.77;24.90;;;2.30;99.90;;;3.15;100.00;99186.16;4752262;30;20246;-60
2020/12/11 02:54:56;;;;;;;69.13;25.40;;;2.30;99.90;;;3.16;100.00;99177.16;4752300;30;20671;-60
2020/12/11 02:57:24;;;;;;;69.73;25.33;;;2.30;99.90;;;3.36;100.00;99171.97;4752215;30;20293;-61
2020/12/11 02:59:51;;;;;;;74.30;25.10;;;2.30;99.90;;;3.17;100.00;99167.34;4752196;30;20216;-60
2020/12/11 03:02:19;;;;;;;65.63;24.53;;;2.40;99.90;;;3.50;100.00;99171.00;4752425;30;20251;-60
2020/12/11 03:04:46;;;;;;;61.43;24.27;;;2.40;99.90;;;3.16;100.00;99171.84;4752054;30;20223;-59
2020/12/11 03:07:13;;;;;;;73.57;25.43;;;2.40;99.90;;;3.36;100.00;99166.63;4751982;30;20755;-60
2020/12/11 03:09:40;;;;;;;72.50;25.37;;;2.40;99.90;;;3.52;100.00;99172.44;4752362;30;20640;-59
2020/12/11 03:12:07;;;;;;;63.63;24.53;;;2.40;99.90;;;3.48;100.00;99162.38;4752011;30;20243;-60
2020/12/11 03:14:35;;;;;;;64.17;22.90;;;2.50;99.90;;;3.28;100.00;99158.81;4752246;30;20295;-61
2020/12/11 03:17:03;;;;;;;69.43;23.77;;;2.50;99.90;;;3.38;100.00;99154.75;4752184;30;20291;-60
2020/12/11 03:19:30;;;;;;;58.70;23.23;;;2.40;99.90;;;3.21;100.00;99150.00;4751883;30;20691;-59
2020/12/11 03:21:58;;;;;;;64.80;23.57;;;2.40;99.90;;;3.27;100.00;99150.00;4752072;30;20363;-60
2020/12/11 03:24:25;;;;;;;56.53;22.97;;;2.30;99.90;;;3.45;100.00;99146.81;4752014;30;20240;-61
2020/12/11 03:26:52;;;;;;;56.50;22.33;;;2.40;99.90;;;3.52;100.00;99143.16;4751615;30;20234;-60
2020/12/11 03:29:20;;;;;;;57.27;22.07;;;2.50;99.90;;;3.13;100.00;99150.16;4751667;30;20680;-59
2020/12/11 03:31:48;;;;;;;63.97;23.13;;;2.40;99.90;;;3.34;100.00;99142.88;4751808;30;20678;-60
2020/12/11 03:34:15;;;;;;;54.93;21.47;;;2.40;99.90;;;3.45;100.00;99144.16;4751589;30;20212;-60
2020/12/11 03:36:42;;;;;;;55.43;21.00;;;2.40;99.90;;;3.48;100.00;99146.41;4751548;30;20593;-60
2020/12/11 03:39:09;;;;;;;50.67;21.03;;;2.50;99.90;;;3.33;100.00;99135.91;4751754;30;20278;-60
2020/12/11 03:41:36;;;;;;;49.93;20.13;;;2.40;99.90;;;3.43;100.00;99135.53;4750473;30;20303;-62
2020/12/11 03:44:04;;;;;;;57.83;21.77;;;2.40;99.90;;;3.33;100.00;99135.09;4751773;30;20213;-61
2020/12/11 03:46:31;;;;;;;50.40;20.50;;;2.40;99.90;;;3.28;100.00;99140.19;4751680;30;20323;-59
2020/12/11 03:49:00;;;;;;;48.17;20.37;;;2.40;99.90;;;3.46;100.00;99129.81;4751331;30;20270;-60
2020/12/11 03:51:27;;;;;;;44.20;19.43;;;2.50;99.90;;;3.37;100.00;99131.84;4751654;30;20220;-60
2020/12/11 03:53:54;;;;;;;41.97;18.17;;;2.50;99.90;;;3.49;100.00;99124.91;4751367;30;20251;-60
2020/12/11 03:56:21;;;;;;;47.07;19.57;;;2.50;99.90;;;3.40;100.00;99126.09;4750986;30;20222;-60
2020/12/11 03:58:48;;;;;;;41.10;18.80;;;2.50;99.90;;;3.25;100.00;99122.78;4751582;30;20215;-60
2020/12/11 04:01:16;;;;;;;47.80;18.87;;;2.40;99.90;;;3.36;100.00;99116.06;4751418;30;20318;-60
2020/12/11 04:03:43;;;;;;;48.23;20.73;;;2.40;99.90;;;3.37;100.00;99115.03;4751163;30;20306;-61
2020/12/11 04:06:14;;;;;;;50.53;19.77;;;2.40;99.90;;;3.25;100.00;99105.97;4751397;30;20263;-60
2020/12/11 04:08:43;;;;;;;50.17;19.13;;;2.40;99.90;;;3.43;100.00;99103.59;4751389;30;20204;-60
2020/12/11 04:11:12;;;;;;;47.73;21.00;;;2.40;99.90;;;3.26;100.00;99102.31;4750797;30;20218;-60
2020/12/11 04:13:40;;;;;;;51.73;21.43;;;2.40;99.90;;;3.32;100.00;99082.88;4751359;30;20228;-60
2020/12/11 04:16:10;;;;;;;45.23;18.77;;;2.40;99.90;;;3.32;100.00;99093.53;4751276;30;20252;-61
2020/12/11 04:18:37;;;;;;;52.77;20.80;;;2.40;99.90;;;3.34;100.00;99086.16;4751262;30;20223;-62
2020/12/11 04:21:05;;;;;;;48.70;19.47;;;2.40;99.90;;;3.39;100.00;99078.41;4751295;30;20243;-60
2020/12/11 04:23:33;;;;;;;51.20;20.60;;;2.40;99.90;;;3.26;100.00;99078.38;4750898;30;20251;-61
2020/12/11 04:26:00;;;;;;;51.53;20.90;;;2.40;99.90;;;3.33;100.00;99072.03;4750876;30;20265;-61
2020/12/11 04:28:28;;;;;;;49.90;19.13;;;2.40;99.90;;;3.40;100.00;99070.22;4751170;30;20303;-60
2020/12/11 04:30:55;;;;;;;46.30;20.70;;;2.40;99.90;;;3.26;100.00;99068.56;4751076;30;20216;-61
2020/12/11 04:33:22;;;;;;;49.37;21.93;;;2.40;99.90;;;3.14;100.00;99071.97;4751118;30;20219;-60
2020/12/11 04:35:50;;;;;;;55.80;21.63;;;2.40;99.90;;;2.99;100.00;99073.97;4750832;30;20304;-60
2020/12/11 04:38:18;;;;;;;52.23;21.57;;;2.30;99.90;;;3.12;100.00;99071.34;4751121;30;20280;-60
2020/12/11 04:40:46;;;;;;;53.07;22.07;;;2.30;99.90;;;3.22;100.00;99074.47;4750883;30;20247;-60
2020/12/11 04:43:13;;;;;;;47.17;21.13;;;2.30;99.90;;;3.35;100.00;99071.81;4750528;30;20309;-61
2020/12/11 04:45:42;;;;;;;46.23;20.43;;;2.40;99.90;;;3.55;100.00;99076.19;4750599;30;20233;-60
2020/12/11 04:48:10;;;;;;;40.23;18.70;;;2.50;99.90;;;3.46;100.00;99064.09;4750708;30;20261;-60
2020/12/11 04:50:37;;;;;;;48.63;20.97;;;2.50;99.90;;;3.28;100.00;99058.50;4750615;30;20627;-60
2020/12/11 04:53:05;;;;;;;47.20;20.13;;;2.50;99.90;;;3.41;100.00;99063.06;4752314;30;20223;-61
2020/12/11 04:55:35;;;;;;;44.80;19.00;;;2.50;99.90;;;3.47;100.00;99062.25;4754315;30;20247;-60
2020/12/11 04:58:05;;;;;;;43.93;19.00;;;2.50;99.90;;;3.52;100.00;99054.47;4754088;30;20218;-60
2020/12/11 05:00:33;;;;;;;47.60;19.93;;;2.50;99.90;;;3.35;100.00;99069.16;4754353;30;20232;-60
2020/12/11 05:03:02;;;;;;;45.50;20.43;;;2.50;99.90;;;3.33;100.00;99063.25;4754087;30;20215;-61
2020/12/11 05:05:29;;;;;;;47.43;18.93;;;2.50;99.90;;;3.31;100.00;99067.94;4754432;30;20267;-60
2020/12/11 05:07:56;;;;;;;47.70;19.43;;;2.40;99.90;;;3.31;100.00;99059.97;4754154;30;20665;-59
2020/12/11 05:10:24;;;;;;;40.70;18.83;;;2.40;99.90;;;3.35;100.00;99056.69;4753997;30;20251;-60
2020/12/11 05:12:51;;;;;;;41.87;17.70;;;2.40;99.90;;;3.27;100.00;99056.06;4753878;30;20220;-61
2020/12/11 05:15:22;;;;;;;43.20;18.57;;;2.40;99.90;;;3.32;100.00;99053.59;4754278;30;20212;-61
2020/12/11 05:17:49;;;;;;;43.20;18.87;;;2.40;99.90;;;3.28;100.00;99063.03;4754273;30;20297;-61
2020/12/11 05:20:16;;;;;;;41.60;18.43;;;2.40;99.90;;;3.31;100.00;99052.81;4754116;30;20596;-60
2020/12/11 05:22:43;;;;;;;40.50;19.17;;;2.40;99.90;;;3.32;100.00;99058.94;4754101;30;20222;-60
2020/12/11 05:25:21;;;;;;;40.37;18.50;;;2.40;99.90;;;3.27;100.00;99053.38;4753827;30;20743;-60
2020/12/11 05:27:49;;;;;;;43.13;18.67;;;2.40;99.90;;;3.31;100.00;99054.63;4753917;30;20284;-59
2020/12/11 05:30:25;;;;;;;48.00;21.10;;;2.40;99.90;;;3.31;100.00;99050.16;4754038;30;20216;-61
2020/12/11 05:32:58;;;;;;;41.83;18.80;;;2.40;99.90;;;3.35;100.00;99050.53;4753976;30;20226;-60
2020/12/11 05:35:30;;;;;;;41.10;18.73;;;2.40;99.90;;;3.34;100.00;99056.91;4753608;30;20679;-60
2020/12/11 05:38:02;;;;;;;41.57;19.27;;;2.40;99.90;;;3.30;100.00;99045.84;4753914;30;20190;-60
2020/12/11 05:40:32;;;;;;;41.30;18.07;;;2.40;99.90;;;3.23;100.00;99044.19;4753506;30;20608;-60
2020/12/11 05:43:15;;;;;;;41.77;18.77;;;2.40;99.90;;;3.41;100.00;99039.09;4753657;30;20224;-60
2020/12/11 05:45:51;;;;;;;39.40;18.43;;;2.40;99.90;;;3.28;100.00;99033.75;4753483;30;20221;-61
2020/12/11 05:48:21;;;;;;;37.97;18.93;;;2.40;99.90;;;3.40;100.00;99042.81;4753434;30;20329;-60
2020/12/11 05:50:49;;;;;;;38.90;18.37;;;2.40;99.90;;;3.42;100.00;99038.06;4753668;30;20292;-60
2020/12/11 05:53:16;;;;;;;38.37;17.57;;;2.40;99.90;;;3.38;100.00;99042.97;4753271;30;20223;-60
2020/12/11 05:55:43;;;;;;;39.27;18.20;;;2.40;99.90;;;3.42;100.00;99027.44;4753394;30;20295;-60
2020/12/11 05:58:12;;;;;;;38.53;18.03;;;2.40;99.90;;;3.18;100.00;99033.31;4753340;30;20299;-61
2020/12/11 06:00:40;;;;;;;39.17;18.00;;;2.40;99.90;;;3.46;100.00;99034.00;4753214;30;20250;-60
2020/12/11 06:03:09;;;;;;;35.10;17.07;;;2.40;99.90;;;3.51;100.00;99036.88;4753434;30;20282;-60
2020/12/11 06:05:39;;;;;;;34.97;17.27;;;2.50;99.90;;;3.26;100.00;99025.97;4752096;30;20587;-61
2020/12/11 06:08:11;;;;;;;37.87;17.17;;;2.40;99.90;;;3.17;100.00;99027.19;4753028;30;20213;-60
2020/12/11 06:10:40;;;;;;;42.33;19.00;;;2.40;99.90;;;3.36;100.00;99022.94;4752944;30;20290;-60
2020/12/11 06:13:08;;;;;;;37.87;18.37;;;2.40;99.90;;;3.38;100.00;99024.34;4753006;30;20292;-60
2020/12/11 06:15:41;;;;;;;38.83;17.67;;;2.40;99.90;;;3.31;100.00;99017.38;4752981;30;20278;-61
2020/12/11 06:18:17;;;;;;;39.60;18.00;;;2.60;99.90;;;3.27;100.00;99011.66;4753193;30;20207;-61
2020/12/11 06:20:47;;;;;;;36.57;17.73;;;2.40;99.90;;;3.27;100.00;99019.63;4752805;30;20287;-61
2020/12/11 06:23:23;;;;;;;40.47;19.23;;;2.40;99.90;;;3.48;100.00;99008.00;4752705;30;20208;-60
2020/12/11 06:25:54;;;;;;;38.40;18.03;;;2.50;99.90;;;3.41;100.00;99001.84;4752780;30;20304;-60
2020/12/11 06:28:45;;;;;;;39.43;18.53;;;2.50;99.90;;;3.56;100.00;98999.81;4753521;30;20240;-60
2020/12/11 06:31:15;;;;;;;35.63;17.93;;;2.50;99.90;;;3.57;100.00;98998.78;4753389;30;20313;-60
2020/12/11 06:33:46;;;;;;;40.93;18.77;;;2.60;99.90;;;3.58;100.00;98997.78;4752481;30;20729;-60
2020/12/11 06:36:14;;;;;;;41.67;18.50;;;2.60;99.90;;;3.42;100.00;98991.00;4752642;30;20260;-60
2020/12/11 06:38:49;;;;;;;40.27;17.67;;;2.50;99.90;;;3.49;100.00;98998.97;4752652;30;20220;-62
2020/12/11 06:41:39;;;;;;;38.43;17.10;;;2.50;99.90;;;3.29;100.00;99004.28;4734852;30;20209;-60
2020/12/11 06:44:18;;;;;;;38.60;17.90;;;2.50;99.90;;;3.23;100.00;99002.41;4734637;30;20214;-61
2020/12/11 06:47:08;;;;;;;37.17;18.10;;;2.40;99.90;;;3.35;100.00;98999.97;4734441;30;20735;-61
2020/12/11 06:49:58;;;;;;;44.60;18.70;;;2.40;99.90;;;3.28;100.00;99004.50;4734773;30;20372;-60
2020/12/11 06:52:34;;;;;;;38.93;17.27;;;2.40;99.90;;;3.15;100.00;98999.13;4734365;30;20248;-60
2020/12/11 06:55:02;;;;;;;43.10;17.63;;;2.40;99.90;;;3.41;100.00;99002.69;4735110;30;20231;-61
2020/12/11 06:57:41;;;;;;;38.00;18.37;;;2.40;99.90;;;3.35;100.00;99000.81;4734685;30;20884;-60
2020/12/11 07:00:37;;;;;;;36.47;18.13;;;2.50;99.90;;;3.36;100.00;99006.97;4734436;30;20380;-61
2020/12/11 07:03:32;;;;;;;33.40;15.77;;;2.40;99.90;;;3.52;100.00;98994.06;4686073;30;20261;-61
2020/12/11 07:06:03;;;;;;;29.40;16.10;;;2.50;99.90;;;3.38;100.00;98997.72;4717137;30;20225;-60
2020/12/11 07:08:31;;;;;;;28.43;15.37;;;2.50;99.90;;;3.54;100.00;99001.84;4717645;30;20198;-61
2020/12/11 07:11:13;;;;;;;30.87;16.20;;;2.50;99.90;;;3.45;100.00;99001.22;4717224;30;20218;-61
2020/12/11 07:13:51;;;;;;;33.43;17.47;;;2.50;99.90;;;3.45;100.00;99000.44;4717654;30;20201;-61
2020/12/11 07:16:20;;;;;;;34.50;16.73;;;2.60;99.90;;;3.21;100.00;99007.16;4716730;30;20293;-60
2020/12/11 07:18:48;;;;;;;33.97;17.20;;;2.50;99.90;;;3.53;100.00;99005.56;4716550;30;20328;-61
2020/12/11 07:21:18;;;;;;;35.00;16.83;;;2.50;99.90;;;3.56;100.00;99007.81;4716400;30;20343;-61
2020/12/11 07:23:46;;;;;;;31.20;16.87;;;2.50;99.90;;;3.35;100.00;99011.44;4715855;30;20304;-62
2020/12/11 07:26:16;;;;;;;32.63;15.80;;;2.50;99.90;;;3.46;100.00;99010.03;4716701;30;20522;-61
2020/12/11 07:28:43;;;;;;;32.20;16.67;;;2.50;99.90;;;3.52;100.00;99014.53;4716383;30;20221;-60
2020/12/11 07:31:13;;;;;;;30.37;15.03;;;2.50;99.90;;;3.47;100.00;99007.19;4716777;30;20710;-60
2020/12/11 07:33:41;;;;;;;28.67;16.23;;;2.50;99.90;;;3.27;100.00;99009.00;4716603;30;20225;-60
2020/12/11 07:36:09;;;;;;;30.37;16.17;;;2.50;99.90;;;3.29;100.00;99000.81;4716299;30;20762;-60
2020/12/11 07:38:37;;;;;;;30.53;16.57;;;2.50;99.90;;;3.37;100.00;99009.41;4716045;30;20315;-60
2020/12/11 07:41:06;;;;;;;28.33;15.83;;;2.40;99.90;;;3.52;100.00;99004.72;4716083;30;20309;-61
2020/12/11 07:43:33;;;;;;;30.20;15.97;;;2.50;99.90;;;3.74;100.00;99002.69;4715988;30;20701;-60
2020/12/11 07:46:01;;;;;;;24.77;14.07;;;2.60;99.90;;;3.39;100.00;98996.72;4720095;30;20374;-60
2020/12/11 07:48:28;;;;;;;26.40;14.40;;;2.60;99.90;;;3.51;100.00;99002.28;4733362;30;20268;-60
2020/12/11 07:51:01;;;;;;;24.83;14.73;;;2.60;99.90;;;3.25;100.00;98994.22;4733766;30;20637;-61
2020/12/11 07:53:29;;;;;;;26.33;15.03;;;2.50;99.90;;;3.29;100.00;98993.66;4733148;30;20557;-60
2020/12/11 07:55:57;;;;;;;27.10;14.40;;;2.50;99.90;;;3.30;100.00;99000.59;4733625;30;20213;-61
2020/12/11 07:58:26;;;;;;;25.83;14.77;;;2.40;99.90;;;3.50;100.00;98990.78;4733546;30;20291;-61
2020/12/11 08:00:53;;;;;;;23.63;14.63;;;2.50;99.90;;;3.50;100.00;98995.31;4736665;30;20244;-60
2020/12/11 08:03:26;;;;;;;27.13;14.10;;;2.60;99.90;;;3.55;100.00;98985.69;4751177;30;20221;-61
2020/12/11 08:05:53;;;;;;;25.93;15.70;;;2.50;99.90;;;3.73;100.00;98991.25;4751229;30;20199;-61
2020/12/11 08:08:27;;;;;;;25.73;14.40;;;2.70;99.90;;;3.51;100.00;98989.78;4750864;30;20332;-60
2020/12/11 08:10:54;;;;;;;27.27;15.40;;;2.60;99.90;;;3.71;100.00;98984.47;4750690;30;20647;-60
2020/12/11 08:13:24;;;;;;;24.77;14.87;;;2.70;99.90;;;3.77;100.00;98982.84;4750927;30;20225;-59
2020/12/11 08:16:02;;;;;;;22.93;13.97;;;2.70;99.90;;;3.79;100.00;98983.44;4750871;30;20555;-61
2020/12/11 08:18:30;;;;;;;22.30;13.90;;;2.80;99.90;;;3.70;100.00;98980.97;4750696;30;20259;-61
2020/12/11 08:21:00;;;;;;;28.57;16.00;;;2.70;99.90;;;3.73;100.00;98985.91;4750767;30;20253;-60
2020/12/11 08:23:42;;;;;;;27.43;14.70;;;2.80;99.90;;;3.87;100.00;98977.91;4750294;30;20220;-60
2020/12/11 08:26:17;;;;;;;24.60;14.23;;;2.80;99.90;;;4.04;100.00;98973.81;4750524;30;20230;-61
2020/12/11 08:28:47;;;;;;;26.00;14.10;;;2.90;99.90;;;3.99;100.00;98971.72;4750041;30;20259;-61
2020/12/11 08:31:22;;;;;;;29.83;14.93;;;3.00;99.90;;;4.10;100.00;98970.28;4750707;30;20201;-60
2020/12/11 08:34:00;;;;;;;28.03;14.60;;;3.00;99.90;;;4.14;100.00;98971.53;4749726;30;20193;-60
2020/12/11 08:36:30;;;;;;;28.47;15.60;;;3.00;99.90;;;3.96;100.00;98961.50;4750389;30;20661;-61
2020/12/11 08:39:19;;;;;;;26.33;14.87;;;3.00;99.90;;;4.11;100.00;98959.41;4750523;30;20212;-61
2020/12/11 08:42:11;;;;;;;28.13;15.00;;;3.10;99.90;;;4.29;100.00;98953.44;4750576;30;20194;-60
2020/12/11 08:48:04;;;;;;;25.13;15.30;;;3.30;99.90;;;4.34;100.00;98949.13;4750481;30;20334;-59
2020/12/11 08:50:40;;;;;;;27.37;15.13;;;3.40;99.90;;;4.50;99.28;98931.88;4750712;30;20224;-60
2020/12/11 08:53:09;;;;;;;29.07;15.43;;;3.50;99.90;;;4.60;98.66;98941.03;4750493;30;20241;-60
2020/12/11 08:55:38;;;;;;;28.30;16.13;;;3.50;99.90;;;4.55;98.45;98937.38;4750491;30;20249;-60
2020/12/11 08:58:07;;;;;;;29.23;16.77;;;3.50;99.90;;;4.75;97.70;98940.78;4750164;30;20693;-60
2020/12/11 09:00:35;;;;;;;28.43;15.70;;;3.60;99.90;;;4.91;96.37;98943.78;4750226;30;20215;-60
2020/12/11 09:03:03;;;;;;;25.27;14.63;;;3.70;99.90;;;4.70;97.44;98933.38;4750685;30;20290;-61
2020/12/11 09:05:31;;;;;;;28.90;16.07;;;3.70;99.90;;;4.81;97.93;98938.06;4750290;30;20233;-60
2020/12/11 09:07:58;;;;;;;29.17;15.80;;;3.80;99.90;;;4.83;98.24;98933.34;4750278;30;20325;-60
2020/12/11 09:10:26;;;;;;;28.60;16.33;;;3.80;99.90;;;5.06;96.14;98929.34;4750430;30;20245;-61
2020/12/11 09:12:53;;;;;;;33.57;16.60;;;3.90;99.90;;;5.04;97.34;98936.72;4750389;30;20648;-60
2020/12/11 09:15:22;;;;;;;29.17;15.77;;;3.90;99.90;;;5.07;96.85;98938.97;4750467;30;20218;-60
2020/12/11 09:17:50;;;;;;;31.43;16.23;;;3.90;99.90;;;5.13;95.41;98932.75;4749858;30;20260;-61
2020/12/11 09:20:18;;;;;;;29.17;16.43;;;4.00;99.90;;;5.10;95.65;98922.50;4750335;30;20223;-60
2020/12/11 09:22:45;;;;;;;29.23;16.80;;;4.00;99.90;;;5.05;96.87;98925.84;4749736;30;20218;-60
2020/12/11 09:25:12;;;;;;;31.80;17.40;;;4.00;99.90;;;5.22;95.14;98929.63;4750109;30;20597;-61
2020/12/11 09:27:41;;;;;;;28.87;16.63;;;4.10;99.90;;;5.25;95.58;98925.69;4750008;30;20331;-60
2020/12/11 09:30:25;;;;;;;31.73;16.80;;;4.10;99.90;;;5.07;95.33;98917.59;4750274;30;20665;-60
2020/12/11 09:33:02;;;;;;;37.47;24.33;;;4.10;99.90;;;5.18;95.65;98911.56;4750476;30;20223;-61
2020/12/11 09:35:29;;;;;;;30.10;17.73;;;4.10;99.90;;;5.21;95.51;98919.97;4750445;30;20283;-60
2020/12/11 09:37:58;;;;;;;32.17;18.60;;;4.10;99.90;;;5.34;94.98;98911.06;4749803;30;20299;-61
2020/12/11 09:40:34;;;;;;;31.20;17.07;;;4.20;99.90;;;5.46;94.79;98907.47;4751588;30;20219;-60
2020/12/11 09:45:49;;;;;;;32.90;18.53;;;4.30;99.90;;;5.55;94.11;98902.66;4753567;30;20200;-60
2020/12/11 09:48:26;;;;;;;32.07;17.57;;;4.40;99.90;;;5.46;94.86;98891.47;4752996;30;20265;-60
2020/12/11 09:51:01;;;;;;;36.17;17.90;;;4.40;99.90;;;5.48;94.34;98894.69;4753318;30;20225;-61
2020/12/11 09:56:10;;;;;;;31.83;18.10;;;4.40;99.90;;;5.53;94.57;98883.38;4717577;30;20222;-60
2020/12/11 09:58:40;;;;;;;30.20;18.43;;;4.50;99.90;;;5.38;94.24;98874.91;4717860;30;20587;-60
2020/12/11 10:01:08;;;;;;;35.77;19.07;;;4.50;99.90;;;5.47;94.43;98873.56;4728132;30;20217;-59
2020/12/11 10:03:40;;;;;;;32.80;18.60;;;4.40;99.90;;;5.60;93.49;98865.41;4753117;30;20219;-60
2020/12/11 10:06:08;;;;;;;36.10;18.87;;;4.50;99.90;;;5.50;94.54;98860.59;4752565;30;20196;-66
2020/12/11 10:08:36;;;;;;;35.53;20.07;;;4.50;99.90;;;5.46;95.32;98858.59;4740498;30;20306;-62
2020/12/11 10:11:03;;;;;;;34.13;18.70;;;4.40;99.90;;;5.63;94.56;98854.31;4749865;30;20448;-63
2020/12/11 10:13:31;;;;;;;36.80;19.43;;;4.40;99.90;;;5.75;93.32;98849.91;4729327;30;20698;-59
2020/12/11 10:15:58;;;;;;;36.00;18.70;;;4.50;99.90;;;5.59;94.24;98837.91;4731697;30;20309;-62
2020/12/11 10:18:25;;;;;;;36.10;19.67;;;4.50;99.90;;;5.43;95.36;98837.66;4732299;30;20217;-61
2020/12/11 10:20:54;;;;;;;35.27;20.17;;;4.40;99.90;;;5.46;95.78;98839.91;4732121;30;20227;-60
2020/12/11 10:23:21;;;;;;;33.10;18.37;;;4.40;99.90;;;5.70;94.23;98831.03;4732118;30;20255;-60
2020/12/11 10:25:48;;;;;;;36.93;19.83;;;4.50;99.90;;;5.82;93.29;98832.78;4731609;30;20219;-60
2020/12/11 10:28:16;;;;;;;34.53;19.47;;;4.60;99.90;;;5.58;95.16;98827.47;4731630;30;20255;-60
2020/12/11 10:30:43;;;;;;;37.00;19.90;;;4.60;99.90;;;5.70;95.70;98831.03;4731857;30;20219;-60
2020/12/11 10:33:11;;;;;;;35.07;19.53;;;4.60;99.90;;;5.68;95.22;98822.44;4731183;30;20251;-63
2020/12/11 10:35:38;;;;;;;37.07;19.93;;;4.60;99.90;;;5.59;95.71;98821.91;4731458;30;20255;-61
2020/12/11 10:38:06;;;;;;;39.17;20.67;;;4.50;99.90;;;5.79;94.16;98816.34;4731632;30;20215;-59
2020/12/11 10:40:34;;;;;;;37.77;21.27;;;4.60;99.90;;;6.00;93.52;98813.25;4731552;30;20335;-60
2020/12/11 10:43:01;;;;;;;37.83;20.80;;;4.70;99.90;;;6.07;93.06;98809.47;4727034;30;20225;-60
2020/12/11 10:45:30;;;;;;;39.77;20.90;;;4.80;99.90;;;6.09;93.04;98809.22;4714148;30;20217;-59
2020/12/11 10:48:06;;;;;;;35.43;20.30;;;4.90;99.90;;;5.95;93.09;98800.56;4713620;30;20332;-62
2020/12/11 10:50:33;;;;;;;38.33;21.57;;;4.80;99.90;;;5.97;93.10;98798.47;4713607;30;20303;-62
2020/12/11 10:53:01;;;;;;;39.43;20.73;;;4.90;99.90;;;5.95;93.31;98802.44;4713938;30;20245;-60
2020/12/11 10:55:29;;;;;;;38.87;20.83;;;4.80;99.90;;;6.14;92.25;98802.19;4713439;30;20236;-59
2020/12/11 10:57:56;;;;;;;36.83;20.53;;;4.90;99.90;;;6.05;93.02;98797.38;4713200;30;20213;-60
2020/12/11 11:00:23;;;;;;;38.80;20.10;;;4.90;99.90;;;6.11;91.99;98791.94;4713418;30;20266;-60
2020/12/11 11:02:50;;;;;;;36.17;19.17;;;5.00;99.90;;;6.03;93.14;98783.41;4713777;30;20241;-60
2020/12/11 11:05:18;;;;;;;39.23;21.30;;;4.90;99.90;;;5.98;93.36;98777.94;4713698;30;20244;-61
2020/12/11 11:07:45;;;;;;;40.17;21.37;;;4.90;99.90;;;6.31;91.89;98780.19;4713508;30;20233;-61
2020/12/11 11:10:22;;;;;;;37.90;20.13;;;5.00;99.90;;;6.19;91.33;98780.94;4713201;30;20221;-61
2020/12/11 11:12:54;;;;;;;37.83;19.47;;;5.10;99.90;;;6.44;90.41;98771.97;4713170;30;20220;-61
2020/12/11 11:15:37;;;;;;;39.87;19.93;;;5.20;99.90;;;6.21;90.32;98769.22;4713396;30;20209;-60
2020/12/11 11:18:14;;;;;;;36.23;20.23;;;5.20;99.90;;;6.23;91.18;98765.25;4713341;30;20299;-62
2020/12/11 11:20:57;;;;;;;37.23;19.60;;;5.20;99.90;;;6.32;90.28;98758.56;4713281;30;20233;-61
2020/12/11 11:26:19;;;;;;;39.47;18.97;;;5.20;99.90;;;6.37;90.99;98757.88;4712595;30;20613;-63